| time (UTC) | temp F | wind direction | speed MPH | gust MPH | rain 1hr in | rain 24hr in | rain mn in | humidity % | barometer mb |
| 20260508213010 | 76 | 234 | 2.0 | 9.0 | 0.00 | 0.00 | 0.00 | 23 | 863.5 |
| 20260508211515 | 76 | 66 | 3.0 | 7.0 | 0.00 | 0.00 | 0.00 | 22 | 863.7 |
| 20260508210008 | 76 | 256 | 2.0 | 9.0 | 0.00 | 0.00 | 0.00 | 22 | 863.8 |
| 20260508204510 | 76 | 105 | 5.0 | 9.0 | 0.00 | 0.00 | 0.00 | 21 | 864.0 |
| 20260508203010 | 76 | 279 | 3.0 | 9.0 | 0.00 | 0.00 | 0.00 | 22 | 864.1 |
| 20260508201508 | 76 | 171 | 4.0 | 12.0 | 0.00 | 0.00 | 0.00 | 22 | 864.1 |
| 20260508200019 | 75 | 196 | 5.0 | 12.0 | 0.00 | 0.00 | 0.00 | 22 | 864.3 |
| 20260508194510 | 77 | 216 | 3.0 | 12.0 | 0.00 | 0.00 | 0.00 | 22 | 864.1 |
| 20260508193002 | 76 | 351 | 3.0 | 12.0 | 0.00 | 0.00 | 0.00 | 24 | 864.4 |
| 20260508191500 | 74 | 207 | 6.0 | 10.0 | 0.00 | 0.00 | 0.00 | 22 | 864.5 |
| 20260508190100 | 74 | 188 | 7.0 | 13.0 | 0.00 | 0.00 | 0.00 | 24 | 864.5 |
| 20260508184558 | 74 | 200 | 4.0 | 14.0 | 0.00 | 0.00 | 0.00 | 27 | 864.5 |
| 20260508183124 | 75 | 33 | 3.0 | 13.0 | 0.00 | 0.00 | 0.00 | 26 | 864.6 |
| 20260508181610 | 74 | 345 | 5.0 | 13.0 | 0.00 | 0.00 | 0.00 | 26 | 864.8 |
| 20260508180049 | 74 | 203 | 3.0 | 7.0 | 0.00 | 0.00 | 0.00 | 27 | 865.0 |
| 20260508174547 | 73 | 267 | 3.0 | 10.0 | 0.00 | 0.00 | 0.00 | 30 | 865.3 |
| 20260508173043 | 73 | 298 | 3.0 | 7.0 | 0.00 | 0.00 | 0.00 | 30 | 865.2 |
| 20260508171547 | 72 | 192 | 4.0 | 9.0 | 0.00 | 0.00 | 0.00 | 31 | 865.3 |
| 20260508170038 | 73 | 263 | 1.0 | 5.0 | 0.00 | 0.00 | 0.00 | 29 | 865.2 |
| 20260508164533 | 71 | 296 | 2.0 | 5.0 | 0.00 | 0.00 | 0.00 | 31 | 865.1 |
| 20260508163030 | 71 | 223 | 1.0 | 5.0 | 0.00 | 0.00 | 0.00 | 33 | 865.1 |
| 20260508161533 | 70 | 221 | 1.0 | 4.0 | 0.00 | 0.00 | 0.00 | 35 | 865.1 |
| 20260508160023 | 69 | 183 | 0.0 | 3.0 | 0.00 | 0.00 | 0.00 | 36 | 865.0 |
| 20260508154517 | 69 | 18 | 0.0 | 3.0 | 0.00 | 0.00 | 0.00 | 39 | 865.0 |
| 20260508153013 | 68 | 45 | 0.0 | 3.0 | 0.00 | 0.00 | 0.00 | 42 | 865.0 |
| 20260508151509 | 65 | 176 | 0.0 | 0.0 | 0.00 | 0.00 | 0.00 | 47 | 865.0 |
| 20260508150012 | 63 | 348 | 0.0 | 0.0 | 0.00 | 0.00 | 0.00 | 49 | 864.9 |
| 20260508144605 | 61 | 10 | 0.0 | 1.0 | 0.00 | 0.00 | 0.00 | 53 | 864.9 |
| 20260508143055 | 59 | 112 | 0.0 | 1.0 | 0.00 | 0.00 | 0.00 | 56 | 864.9 |
| 20260508141601 | 57 | 112 | 0.0 | 1.0 | 0.00 | 0.00 | 0.00 | 63 | 864.8 |
| 20260508140056 | 55 | 112 | 0.0 | 1.0 | 0.00 | 0.00 | 0.00 | 67 | 864.7 |
| 20260508134544 | 51 | 112 | 0.0 | 2.0 | 0.00 | 0.00 | 0.00 | 71 | 864.7 |
| 20260508133042 | 48 | 112 | 0.0 | 0.0 | 0.00 | 0.00 | 0.00 | 76 | 864.5 |
| 20260508131535 | 46 | 112 | 0.0 | 0.0 | 0.00 | 0.00 | 0.00 | 77 | 864.5 |
| 20260508130031 | 45 | 112 | 0.0 | 0.0 | 0.00 | 0.00 | 0.00 | 74 | 864.4 |
| 20260508124528 | 45 | 112 | 0.0 | 0.0 | 0.00 | 0.00 | 0.00 | 72 | 864.1 |
| 20260508123028 | 47 | 112 | 0.0 | 0.0 | 0.00 | 0.00 | 0.00 | 69 | 863.9 |
| 20260508121526 | 47 | 112 | 0.0 | 2.0 | 0.00 | 0.00 | 0.00 | 70 | 863.9 |
| 20260508120024 | 46 | 76 | 0.0 | 2.0 | 0.00 | 0.00 | 0.00 | 74 | 863.9 |
| 20260508114531 | 46 | 109 | 0.0 | 0.0 | 0.00 | 0.00 | 0.00 | 72 | 863.8 |
| 20260508113023 | 47 | 109 | 0.0 | 0.0 | 0.00 | 0.00 | 0.00 | 68 | 863.8 |
| 20260508111516 | 48 | 109 | 0.0 | 0.0 | 0.00 | 0.00 | 0.00 | 67 | 863.6 |
| 20260508110014 | 48 | 109 | 0.0 | 0.0 | 0.00 | 0.00 | 0.00 | 68 | 863.5 |
| 20260508104515 | 48 | 109 | 0.0 | 0.0 | 0.00 | 0.00 | 0.00 | 69 | 863.4 |
| 20260508103013 | 48 | 109 | 0.0 | 0.0 | 0.00 | 0.00 | 0.00 | 69 | 863.4 |
| 20260508101512 | 47 | 109 | 0.0 | 0.0 | 0.00 | 0.00 | 0.00 | 70 | 863.3 |
| 20260508100010 | 47 | 109 | 0.0 | 0.0 | 0.00 | 0.00 | 0.00 | 69 | 863.3 |
| 20260508094506 | 48 | 109 | 0.0 | 0.0 | 0.00 | 0.00 | 0.00 | 66 | 863.2 |
| 20260508093007 | 49 | 109 | 0.0 | 1.0 | 0.00 | 0.00 | 0.00 | 65 | 863.1 |
| 20260508091502 | 50 | 114 | 0.0 | 0.0 | 0.00 | 0.00 | 0.00 | 63 | 863.1 |
| 20260508084559 | 52 | 116 | 0.0 | 2.0 | 0.00 | 0.00 | 0.00 | 60 | 863.0 |
| 20260508083058 | 52 | 76 | 0.0 | 2.0 | 0.00 | 0.00 | 0.00 | 60 | 863.1 |
| 20260508081605 | 51 | 76 | 0.0 | 2.0 | 0.00 | 0.00 | 0.00 | 61 | 863.0 |
| 20260508080058 | 51 | 76 | 0.0 | 2.0 | 0.00 | 0.00 | 0.00 | 62 | 862.9 |
| 20260508074556 | 51 | 76 | 0.0 | 0.0 | 0.00 | 0.00 | 0.00 | 60 | 862.9 |
| 20260508073055 | 53 | 76 | 0.0 | 0.0 | 0.00 | 0.00 | 0.00 | 58 | 862.9 |
| 20260508071546 | 54 | 76 | 0.0 | 2.0 | 0.00 | 0.00 | 0.00 | 55 | 862.9 |
| 20260508070048 | 54 | 97 | 1.0 | 5.0 | 0.00 | 0.00 | 0.00 | 54 | 863.0 |
| 20260508064601 | 54 | 44 | 0.0 | 4.0 | 0.00 | 0.00 | 0.00 | 55 | 862.9 |
| 20260508063042 | 54 | 44 | 1.0 | 3.0 | 0.00 | 0.00 | 0.00 | 55 | 862.8 |
| 20260508061545 | 55 | 157 | 0.0 | 0.0 | 0.00 | 0.00 | 0.00 | 53 | 862.7 |
| 20260508060040 | 55 | 40 | 0.0 | 0.0 | 0.00 | 0.00 | 0.00 | 52 | 862.6 |
| 20260508054600 | 57 | 40 | 0.0 | 0.0 | 0.00 | 0.00 | 0.00 | 49 | 862.4 |
| 20260508053036 | 58 | 40 | 0.0 | 0.0 | 0.00 | 0.00 | 0.00 | 45 | 862.3 |
| 20260508051537 | 58 | 40 | 0.0 | 0.0 | 0.00 | 0.00 | 0.00 | 46 | 862.3 |
| 20260508050039 | 59 | 40 | 0.0 | 0.0 | 0.00 | 0.00 | 0.00 | 45 | 862.3 |
| 20260508044535 | 59 | 40 | 0.0 | 0.0 | 0.00 | 0.00 | 0.00 | 45 | 862.3 |
| 20260508043043 | 59 | 40 | 0.0 | 0.0 | 0.00 | 0.00 | 0.00 | 46 | 862.3 |
| 20260508041536 | 60 | 40 | 0.0 | 0.0 | 0.00 | 0.00 | 0.00 | 45 | 862.2 |
| 20260508040041 | 62 | 40 | 0.0 | 0.0 | 0.00 | 0.00 | 0.00 | 40 | 862.1 |
| 20260508034535 | 63 | 40 | 0.0 | 0.0 | 0.00 | 0.00 | 0.00 | 39 | 862.0 |
| 20260508033034 | 63 | 40 | 0.0 | 2.0 | 0.00 | 0.00 | 0.00 | 40 | 862.0 |
| 20260508031533 | 67 | 155 | 0.0 | 4.0 | 0.00 | 0.00 | 0.00 | 34 | 861.7 |
| 20260508030033 | 68 | 333 | 0.0 | 0.0 | 0.00 | 0.00 | 0.00 | 33 | 861.5 |
| 20260508024531 | 70 | 333 | 0.0 | 1.0 | 0.00 | 0.00 | 0.00 | 29 | 861.4 |
| 20260508023031 | 71 | 333 | 0.0 | 1.0 | 0.00 | 0.00 | 0.00 | 27 | 861.4 |
| 20260508021530 | 72 | 333 | 0.0 | 0.0 | 0.00 | 0.00 | 0.00 | 26 | 861.2 |
| 20260508020029 | 72 | 333 | 0.0 | 1.0 | 0.00 | 0.00 | 0.00 | 26 | 861.3 |
| 20260508014529 | 73 | 333 | 0.0 | 2.0 | 0.00 | 0.00 | 0.00 | 25 | 861.2 |
| 20260508013030 | 73 | 333 | 0.0 | 2.0 | 0.00 | 0.00 | 0.00 | 24 | 861.4 |
| 20260508011536 | 73 | 332 | 2.0 | 6.0 | 0.00 | 0.00 | 0.00 | 25 | 861.4 |
| 20260508010030 | 73 | 298 | 0.0 | 3.0 | 0.00 | 0.00 | 0.00 | 25 | 861.4 |
| 20260508004535 | 73 | 292 | 0.0 | 5.0 | 0.00 | 0.00 | 0.00 | 25 | 861.5 |
| 20260508003022 | 74 | 299 | 2.0 | 5.0 | 0.00 | 0.00 | 0.00 | 25 | 861.6 |
| 20260508001527 | 74 | 293 | 2.0 | 3.0 | 0.00 | 0.00 | 0.00 | 23 | 861.8 |
| 20260508000020 | 74 | 249 | 0.0 | 5.0 | 0.00 | 0.00 | 0.00 | 24 | 861.9 |
| 20260507234524 | 74 | 298 | 4.0 | 7.0 | 0.00 | 0.00 | 0.00 | 24 | 861.9 |
| 20260507233024 | 75 | 281 | 2.0 | 6.0 | 0.00 | 0.00 | 0.00 | 23 | 862.1 |
| 20260507231514 | 75 | 201 | 1.0 | 6.0 | 0.00 | 0.00 | 0.00 | 25 | 862.3 |
| 20260507230013 | 75 | 223 | 1.0 | 7.0 | 0.00 | 0.00 | 0.00 | 26 | 862.5 |
| 20260507224518 | 75 | 285 | 3.0 | 7.0 | 0.00 | 0.00 | 0.00 | 25 | 862.5 |
| 20260507223012 | 75 | 221 | 1.0 | 5.0 | 0.00 | 0.00 | 0.00 | 23 | 862.8 |
| 20260507221507 | 75 | 205 | 0.0 | 7.0 | 0.00 | 0.00 | 0.00 | 23 | 862.9 |
| 20260507220006 | 75 | 159 | 2.0 | 6.0 | 0.00 | 0.00 | 0.00 | 24 | 863.1 |
| 20260507214511 | 76 | 337 | 0.0 | 6.0 | 0.00 | 0.00 | 0.00 | 23 | 863.1 |